Time;durP1;ratioP1;P1;durP2;ratioP2;P2;SDS_P1;SDS_P2;PMS_P1;PMS_P2;Temp;Humidity;BMP_temperature;BMP_pressure;BME280_temperature;BME280_humidity;BME280_pressure;Samples;Min_cycle;Max_cycle;Signal;HPM_P1;HPM_P2
2022/07/19 00:01:24;;;;;;;7.77;4.77;;;25.80;48.20;;;;;;4974278;28;20186;-89
2022/07/19 00:03:50;;;;;;;6.60;4.73;;;25.80;46.40;;;;;;4972966;28;20261;-89
2022/07/19 00:06:16;;;;;;;6.53;3.93;;;25.80;46.80;;;;;;4982533;28;20457;-90
2022/07/19 00:08:41;;;;;;;10.23;4.40;;;25.70;47.70;;;;;;4993061;28;20179;-90
2022/07/19 00:11:07;;;;;;;6.57;4.47;;;25.70;47.40;;;;;;4976113;28;20192;-89
2022/07/19 00:13:33;;;;;;;5.53;4.73;;;25.70;48.30;;;;;;4976316;28;20582;-91
2022/07/19 00:15:59;;;;;;;6.53;4.40;;;25.60;47.40;;;;;;4977144;28;20561;-89
2022/07/19 00:18:24;;;;;;;5.60;4.90;;;25.60;47.60;;;;;;4978304;28;20181;-89
2022/07/19 00:20:50;;;;;;;10.10;5.70;;;25.60;47.40;;;;;;4977028;28;20665;-90
2022/07/19 00:23:16;;;;;;;5.47;3.93;;;25.60;47.60;;;;;;4977877;28;20290;-89
2022/07/19 00:25:42;;;;;;;7.70;4.47;;;25.60;47.20;;;;;;4963464;28;20378;-90
2022/07/19 00:28:07;;;;;;;7.23;4.53;;;25.50;46.80;;;;;;4982687;28;20249;-90
2022/07/19 00:30:33;;;;;;;4.57;4.17;;;25.60;46.30;;;;;;4985656;28;20650;-90
2022/07/19 00:32:59;;;;;;;6.87;5.40;;;25.60;46.20;;;;;;4985570;28;20692;-90
2022/07/19 00:35:25;;;;;;;7.50;4.97;;;25.40;46.70;;;;;;4991875;28;20429;-90
2022/07/19 00:37:50;;;;;;;5.67;4.23;;;25.40;47.00;;;;;;4989657;28;20231;-91
2022/07/19 00:40:23;;;;;;;6.20;5.17;;;25.40;47.60;;;;;;4987766;28;20188;-89
2022/07/19 00:42:51;;;;;;;9.03;4.60;;;25.40;47.70;;;;;;4986336;28;20192;-89
2022/07/19 00:45:16;;;;;;;6.13;4.70;;;25.30;47.80;;;;;;4977858;28;20415;-89
2022/07/19 00:47:42;;;;;;;6.00;4.50;;;25.20;47.40;;;;;;4983787;28;20434;-91
2022/07/19 00:50:08;;;;;;;8.30;5.27;;;25.30;46.80;;;;;;4975610;28;20179;-91
2022/07/19 00:52:36;;;;;;;6.83;4.90;;;25.30;46.80;;;;;;4959033;28;21011;-90
2022/07/19 00:55:03;;;;;;;5.70;4.93;;;25.30;46.90;;;;;;4974642;28;20433;-90
2022/07/19 00:57:31;;;;;;;4.60;4.10;;;25.20;47.00;;;;;;4974961;28;20434;-89
2022/07/19 00:59:57;;;;;;;4.97;4.37;;;25.20;47.10;;;;;;4975179;28;20492;-89
2022/07/19 01:02:24;;;;;;;5.60;4.40;;;25.00;47.20;;;;;;4975390;28;20452;-89
2022/07/19 01:04:50;;;;;;;5.97;4.40;;;25.00;47.60;;;;;;4974492;28;20931;-89
2022/07/19 01:07:15;;;;;;;6.50;4.43;;;25.00;47.50;;;;;;4975447;28;20533;-89
2022/07/19 01:09:42;;;;;;;6.97;5.13;;;25.00;47.40;;;;;;4975334;28;20180;-89
2022/07/19 01:12:08;;;;;;;6.03;4.20;;;25.00;47.50;;;;;;4974842;28;20214;-89
2022/07/19 01:14:37;;;;;;;4.30;3.90;;;24.90;47.50;;;;;;4975366;28;20427;-89
2022/07/19 01:17:03;;;;;;;4.40;3.97;;;24.90;47.70;;;;;;4975913;28;20543;-90
2022/07/19 01:19:29;;;;;;;6.80;4.50;;;24.90;47.50;;;;;;4976560;28;20521;-89
2022/07/19 01:21:55;;;;;;;6.43;4.37;;;24.90;47.10;;;;;;4976294;28;20474;-90
2022/07/19 01:24:21;;;;;;;5.33;4.30;;;24.90;47.50;;;;;;4975862;28;20266;-90
2022/07/19 01:26:47;;;;;;;5.23;4.40;;;24.90;47.70;;;;;;4974997;28;20467;-90
2022/07/19 01:29:16;;;;;;;6.73;4.90;;;24.90;47.80;;;;;;4974688;28;20679;-90
2022/07/19 01:31:42;;;;;;;7.27;4.50;;;24.90;47.80;;;;;;4974234;28;20459;-89
2022/07/19 01:34:08;;;;;;;5.87;4.77;;;24.80;48.00;;;;;;4976653;28;20491;-89
2022/07/19 01:36:34;;;;;;;5.03;4.10;;;24.80;48.30;;;;;;4974814;28;20248;-89
2022/07/19 01:39:00;;;;;;;8.30;5.17;;;24.70;48.50;;;;;;4974920;28;20668;-89
2022/07/19 01:41:26;;;;;;;5.00;4.60;;;24.70;48.70;;;;;;4974239;28;20478;-89
2022/07/19 01:43:52;;;;;;;5.10;4.60;;;24.60;48.80;;;;;;4974594;28;20806;-90
2022/07/19 01:46:17;;;;;;;8.03;4.00;;;24.60;48.70;;;;;;4980473;28;20203;-91
2022/07/19 01:48:43;;;;;;;5.50;5.00;;;24.60;48.60;;;;;;4988018;28;20683;-89
2022/07/19 01:51:09;;;;;;;4.57;4.17;;;24.60;48.70;;;;;;4975109;28;20191;-90
2022/07/19 01:53:35;;;;;;;7.10;4.87;;;24.50;48.90;;;;;;4975145;28;20224;-89
2022/07/19 01:56:04;;;;;;;5.10;4.60;;;24.50;49.40;;;;;;4975363;28;20568;-90
2022/07/19 01:58:30;;;;;;;5.27;4.43;;;24.40;50.00;;;;;;4976545;28;20427;-89
2022/07/19 02:00:56;;;;;;;8.90;4.93;;;24.40;49.80;;;;;;4976461;28;20425;-89
2022/07/19 02:03:21;;;;;;;6.27;4.77;;;24.40;50.20;;;;;;4976226;28;20210;-89
2022/07/19 02:05:47;;;;;;;6.13;5.50;;;24.30;49.40;;;;;;4976085;28;20203;-89
2022/07/19 02:08:13;;;;;;;5.87;5.37;;;24.40;49.10;;;;;;4976630;28;20270;-89
2022/07/19 02:10:39;;;;;;;5.30;4.80;;;24.50;49.10;;;;;;4978307;28;20539;-89
2022/07/19 02:13:05;;;;;;;8.70;5.03;;;24.50;49.20;;;;;;4979519;28;20216;-89
2022/07/19 02:15:31;;;;;;;6.87;5.20;;;24.30;49.50;;;;;;4978151;28;20970;-90
2022/07/19 02:17:56;;;;;;;5.03;4.53;;;24.30;49.70;;;;;;4977680;28;20175;-90
2022/07/19 02:20:23;;;;;;;7.50;5.53;;;24.20;50.00;;;;;;4979794;28;20679;-89
2022/07/19 02:22:49;;;;;;;6.17;4.80;;;24.20;50.40;;;;;;4978309;28;20212;-89
2022/07/19 02:25:14;;;;;;;6.97;4.97;;;24.10;50.70;;;;;;4977945;28;20423;-89
2022/07/19 02:27:41;;;;;;;6.63;5.13;;;24.10;50.70;;;;;;4977879;28;20267;-89
2022/07/19 02:30:07;;;;;;;5.53;5.00;;;24.10;50.60;;;;;;4977891;28;20648;-89
2022/07/19 02:32:33;;;;;;;6.50;5.37;;;24.00;50.80;;;;;;4978033;28;20434;-89
2022/07/19 02:34:59;;;;;;;7.33;4.93;;;24.00;51.50;;;;;;4978019;28;20502;-89
2022/07/19 02:37:24;;;;;;;7.90;5.37;;;23.90;51.70;;;;;;4977030;28;20184;-89
2022/07/19 02:39:50;;;;;;;5.63;4.43;;;24.00;51.00;;;;;;4978979;28;20271;-89
2022/07/19 02:42:16;;;;;;;6.60;5.57;;;23.90;50.90;;;;;;4977409;28;20204;-89
2022/07/19 02:44:41;;;;;;;7.83;5.77;;;24.00;50.60;;;;;;4978129;28;20423;-89
2022/07/19 02:47:07;;;;;;;8.53;5.27;;;24.00;50.90;;;;;;4977011;28;20214;-89
2022/07/19 02:49:33;;;;;;;6.17;5.60;;;24.10;50.80;;;;;;4977333;28;20188;-89
2022/07/19 02:51:58;;;;;;;6.20;4.67;;;23.90;51.10;;;;;;4978677;28;20755;-89
2022/07/19 02:54:24;;;;;;;9.80;5.00;;;23.90;51.40;;;;;;4977871;28;20283;-89
2022/07/19 02:56:50;;;;;;;5.20;4.70;;;23.90;51.60;;;;;;4977804;28;20203;-89
2022/07/19 02:59:15;;;;;;;6.90;4.60;;;23.90;51.60;;;;;;4978888;28;20210;-89
2022/07/19 03:01:41;;;;;;;6.97;5.20;;;23.80;51.20;;;;;;4977385;28;20180;-89
2022/07/19 03:04:07;;;;;;;6.40;4.93;;;23.80;51.60;;;;;;4977049;28;20231;-90
2022/07/19 03:06:33;;;;;;;5.80;5.23;;;23.80;51.50;;;;;;4977238;28;20214;-89
2022/07/19 03:08:58;;;;;;;6.20;5.27;;;23.80;51.60;;;;;;4976741;28;20188;-90
2022/07/19 03:11:24;;;;;;;5.50;5.00;;;23.70;51.80;;;;;;4976897;28;20187;-89
2022/07/19 03:13:50;;;;;;;6.33;4.40;;;23.70;52.60;;;;;;4976527;28;20215;-89
2022/07/19 03:16:16;;;;;;;6.40;4.90;;;23.70;51.70;;;;;;4977042;28;20203;-89
2022/07/19 03:18:41;;;;;;;7.23;4.83;;;23.60;52.00;;;;;;4976442;28;20184;-89
2022/07/19 03:21:07;;;;;;;13.60;6.07;;;23.60;52.10;;;;;;4977460;28;20427;-89
2022/07/19 03:23:34;;;;;;;7.20;5.30;;;23.60;52.70;;;;;;4977343;28;20210;-89
2022/07/19 03:26:00;;;;;;;7.93;5.93;;;23.60;53.00;;;;;;4977292;28;20207;-89
2022/07/19 03:28:27;;;;;;;7.80;5.57;;;23.60;53.40;;;;;;4993788;28;20427;-89
2022/07/19 03:30:53;;;;;;;6.80;4.80;;;23.60;53.20;;;;;;4980249;28;20439;-89
2022/07/19 03:33:18;;;;;;;13.10;5.53;;;23.60;53.00;;;;;;4976538;28;20447;-89
2022/07/19 03:35:45;;;;;;;6.83;4.60;;;23.60;53.20;;;;;;4976488;28;20505;-89
2022/07/19 03:38:12;;;;;;;10.33;5.33;;;23.60;53.40;;;;;;4976388;28;20186;-89
2022/07/19 03:40:38;;;;;;;6.27;5.40;;;23.60;53.60;;;;;;4975942;28;20423;-89
2022/07/19 03:43:05;;;;;;;7.00;6.00;;;23.50;53.60;;;;;;4976384;28;20454;-89
2022/07/19 03:45:30;;;;;;;7.00;6.30;;;23.50;53.40;;;;;;4975749;28;20923;-89
2022/07/19 03:47:56;;;;;;;8.10;4.80;;;23.50;53.50;;;;;;4975645;28;20474;-89
2022/07/19 03:50:22;;;;;;;8.57;6.33;;;23.50;53.50;;;;;;4975880;28;20176;-89
2022/07/19 03:52:47;;;;;;;5.47;5.07;;;23.50;53.60;;;;;;4977144;28;20663;-89
2022/07/19 03:55:13;;;;;;;8.63;5.60;;;23.40;53.60;;;;;;4976422;28;20659;-89
2022/07/19 03:57:39;;;;;;;8.07;5.13;;;23.40;53.60;;;;;;4975646;28;20184;-89
2022/07/19 04:00:06;;;;;;;6.43;5.80;;;23.40;53.70;;;;;;4976513;28;20267;-89
2022/07/19 04:02:31;;;;;;;6.20;5.20;;;23.40;53.80;;;;;;4976396;28;20435;-90
2022/07/19 04:04:57;;;;;;;9.50;5.80;;;23.40;53.70;;;;;;4976786;28;20419;-89
2022/07/19 04:07:23;;;;;;;7.60;5.93;;;23.50;53.90;;;;;;4976129;28;20208;-89
2022/07/19 04:09:49;;;;;;;7.17;5.33;;;23.40;54.10;;;;;;4976251;28;20467;-89
2022/07/19 04:12:14;;;;;;;7.20;4.80;;;23.30;54.60;;;;;;4976091;28;20207;-90
2022/07/19 04:14:40;;;;;;;7.33;5.47;;;23.30;54.90;;;;;;4976041;28;20243;-90
2022/07/19 04:17:06;;;;;;;8.40;5.27;;;23.30;54.50;;;;;;4975803;28;20188;-89
2022/07/19 04:19:32;;;;;;;6.17;5.00;;;23.40;54.00;;;;;;4976413;28;20180;-89
2022/07/19 04:21:58;;;;;;;9.53;5.40;;;23.40;53.80;;;;;;4976435;28;20435;-89
2022/07/19 04:24:23;;;;;;;6.50;4.83;;;23.40;53.80;;;;;;4977258;28;20448;-89
2022/07/19 04:26:49;;;;;;;9.10;5.87;;;23.40;54.10;;;;;;4975504;28;20208;-89
2022/07/19 04:29:15;;;;;;;7.40;5.47;;;23.40;53.90;;;;;;4979018;28;20255;-90
2022/07/19 04:31:40;;;;;;;10.20;5.43;;;23.50;54.00;;;;;;4976725;28;20182;-89
2022/07/19 04:34:06;;;;;;;7.00;6.10;;;23.50;53.80;;;;;;4975385;28;20184;-89
2022/07/19 04:36:32;;;;;;;7.87;5.50;;;23.50;53.70;;;;;;4976820;28;20242;-89
2022/07/19 04:38:57;;;;;;;7.93;4.77;;;23.60;53.40;;;;;;4960240;28;20219;-89
2022/07/19 04:41:23;;;;;;;6.17;5.17;;;23.60;53.60;;;;;;4976465;28;20188;-89
2022/07/19 04:43:49;;;;;;;9.03;6.17;;;23.60;53.30;;;;;;4977461;28;20230;-89
2022/07/19 04:46:14;;;;;;;6.57;5.90;;;23.70;53.00;;;;;;4975066;28;20294;-89
2022/07/19 04:48:41;;;;;;;6.87;5.43;;;23.70;52.80;;;;;;4975143;28;20186;-90
2022/07/19 04:51:07;;;;;;;8.77;5.60;;;23.70;53.20;;;;;;4975854;28;20279;-89
2022/07/19 04:53:33;;;;;;;10.90;6.53;;;23.70;53.30;;;;;;5005069;23;20483;-90
2022/07/19 04:55:58;;;;;;;7.90;5.50;;;23.80;52.20;;;;;;4979751;28;20423;-90
2022/07/19 04:58:24;;;;;;;9.83;5.33;;;23.90;51.60;;;;;;4980172;28;20172;-90
2022/07/19 05:00:50;;;;;;;7.70;5.87;;;23.90;52.20;;;;;;4982803;28;20234;-90
2022/07/19 05:03:16;;;;;;;6.07;5.47;;;24.00;50.20;;;;;;4976013;28;20199;-90
2022/07/19 05:05:41;;;;;;;5.73;4.77;;;24.00;50.10;;;;;;4973929;28;20208;-90
2022/07/19 05:08:07;;;;;;;6.57;4.93;;;24.10;50.20;;;;;;4974012;28;20543;-90
2022/07/19 05:10:33;;;;;;;5.70;5.20;;;24.10;50.10;;;;;;4975783;28;20182;-90
2022/07/19 05:12:59;;;;;;;6.90;5.57;;;24.20;49.70;;;;;;4980463;28;20262;-90
2022/07/19 05:15:24;;;;;;;13.93;5.53;;;24.30;49.20;;;;;;4985123;28;20239;-90
2022/07/19 05:17:50;;;;;;;10.90;4.10;;;24.30;50.20;;;;;;4986644;28;20176;-89
2022/07/19 05:20:16;;;;;;;5.20;4.50;;;24.30;53.10;;;;;;4985084;28;20617;-90
2022/07/19 05:22:43;;;;;;;9.03;4.60;;;24.40;53.80;;;;;;4985008;28;20656;-90
2022/07/19 05:25:10;;;;;;;7.50;4.63;;;24.50;53.30;;;;;;4985760;28;20183;-90
2022/07/19 05:27:36;;;;;;;5.70;5.17;;;24.60;52.00;;;;;;4986795;28;20523;-90
2022/07/19 05:30:04;;;;;;;6.73;4.90;;;24.90;50.50;;;;;;4975106;28;20425;-90
2022/07/19 05:32:29;;;;;;;5.40;4.67;;;25.40;48.60;;;;;;4974567;28;20468;-87
2022/07/19 05:34:55;;;;;;;5.20;4.33;;;26.10;44.60;;;;;;4973518;28;20418;-89
2022/07/19 05:37:21;;;;;;;7.47;4.67;;;26.80;42.50;;;;;;4974109;28;20599;-89
2022/07/19 05:39:47;;;;;;;9.13;4.97;;;27.60;41.10;;;;;;4957886;28;20190;-89
2022/07/19 05:42:12;;;;;;;7.70;4.70;;;28.30;39.80;;;;;;4980698;28;20248;-89
2022/07/19 05:44:38;;;;;;;12.97;5.57;;;28.80;38.10;;;;;;4996242;28;20180;-89
2022/07/19 05:47:04;;;;;;;6.57;4.63;;;29.20;37.10;;;;;;4989534;28;20676;-89
2022/07/19 05:49:30;;;;;;;6.23;5.67;;;29.50;36.10;;;;;;4977589;28;20648;-89
2022/07/19 05:51:55;;;;;;;9.70;4.53;;;29.80;35.80;;;;;;4977348;28;20176;-89
2022/07/19 05:54:21;;;;;;;10.80;5.37;;;29.80;35.10;;;;;;4978022;28;20219;-88
2022/07/19 05:56:47;;;;;;;7.60;5.23;;;30.00;35.30;;;;;;4978638;28;20172;-89
2022/07/19 05:59:13;;;;;;;5.23;4.57;;;30.20;34.90;;;;;;4977799;28;20598;-89
2022/07/19 06:01:38;;;;;;;6.87;4.70;;;30.30;34.80;;;;;;4978662;28;20179;-89
2022/07/19 06:04:04;;;;;;;5.23;4.10;;;30.30;34.90;;;;;;4978808;28;20702;-89
2022/07/19 06:06:37;;;;;;;6.80;4.90;;;30.40;34.30;;;;;;4990883;28;20382;-89
2022/07/19 06:09:04;;;;;;;5.97;4.40;;;30.40;34.00;;;;;;4989673;28;20207;-89
2022/07/19 06:11:30;;;;;;;4.67;4.27;;;30.40;33.80;;;;;;4986421;28;20394;-88
2022/07/19 06:13:56;;;;;;;10.13;4.50;;;30.50;33.90;;;;;;4983470;28;20511;-88
2022/07/19 06:16:22;;;;;;;4.27;3.87;;;30.60;33.80;;;;;;4978625;28;20455;-88
2022/07/19 06:18:48;;;;;;;6.50;4.60;;;30.80;33.50;;;;;;4988581;28;20398;-88
2022/07/19 06:21:17;;;;;;;4.23;3.83;;;30.70;33.30;;;;;;4986067;28;20430;-88
2022/07/19 06:23:43;;;;;;;6.13;4.20;;;30.80;33.30;;;;;;4978955;28;20374;-88
2022/07/19 06:26:11;;;;;;;6.33;4.30;;;31.00;33.70;;;;;;4981360;28;20525;-88
2022/07/19 06:28:37;;;;;;;4.17;3.80;;;31.30;32.60;;;;;;4978519;28;20419;-88
2022/07/19 06:31:03;;;;;;;5.93;4.00;;;31.40;32.80;;;;;;4977222;28;20935;-88
2022/07/19 06:33:28;;;;;;;8.00;4.10;;;31.60;31.80;;;;;;4978285;28;20451;-88
2022/07/19 06:35:54;;;;;;;4.83;4.20;;;31.50;32.00;;;;;;4977384;28;20180;-88
2022/07/19 06:38:20;;;;;;;4.80;4.30;;;31.50;32.30;;;;;;4977680;28;20557;-88
2022/07/19 06:40:46;;;;;;;4.87;4.00;;;31.60;32.00;;;;;;4977997;28;20419;-88
2022/07/19 06:43:12;;;;;;;4.20;3.40;;;31.70;31.80;;;;;;4981173;28;20208;-88
2022/07/19 06:45:38;;;;;;;4.50;3.90;;;31.80;31.90;;;;;;4984048;28;20195;-89
2022/07/19 06:48:04;;;;;;;5.00;4.10;;;31.90;31.90;;;;;;4981502;28;20188;-89
2022/07/19 06:50:30;;;;;;;4.40;4.00;;;32.00;32.70;;;;;;4986127;28;20423;-89
2022/07/19 06:52:56;;;;;;;4.70;4.23;;;32.20;31.90;;;;;;4982655;28;20466;-89
2022/07/19 06:55:21;;;;;;;6.07;3.90;;;32.30;31.90;;;;;;4979477;28;20242;-89
2022/07/19 06:57:47;;;;;;;7.13;3.83;;;32.30;32.10;;;;;;4976925;28;20259;-89
2022/07/19 07:00:14;;;;;;;4.13;3.73;;;32.50;32.00;;;;;;4980534;28;20211;-89
2022/07/19 07:02:41;;;;;;;7.03;3.73;;;32.70;31.50;;;;;;4985185;28;20678;-89
2022/07/19 07:05:08;;;;;;;4.23;3.80;;;32.70;32.10;;;;;;4985669;28;20427;-89
2022/07/19 07:07:34;;;;;;;4.73;3.80;;;32.80;32.10;;;;;;4988091;28;20530;-89
2022/07/19 07:10:02;;;;;;;5.13;3.60;;;32.90;32.50;;;;;;4986172;28;20419;-89
2022/07/19 07:12:29;;;;;;;6.10;3.80;;;32.90;31.10;;;;;;4987605;28;20231;-89
2022/07/19 07:14:55;;;;;;;4.27;3.90;;;33.00;30.90;;;;;;4983606;28;20482;-89
2022/07/19 07:17:21;;;;;;;6.40;4.07;;;33.00;30.30;;;;;;4990546;28;20415;-89
2022/07/19 07:19:47;;;;;;;3.57;3.27;;;32.90;30.00;;;;;;4991531;28;20482;-88
2022/07/19 07:22:13;;;;;;;8.00;4.10;;;32.80;31.00;;;;;;4977531;28;20432;-88
2022/07/19 07:24:38;;;;;;;5.50;3.57;;;32.90;30.00;;;;;;4978491;28;20432;-88
2022/07/19 07:27:04;;;;;;;5.03;4.07;;;32.90;30.00;;;;;;4976049;28;20211;-88
2022/07/19 07:29:30;;;;;;;5.47;3.40;;;32.90;30.00;;;;;;4978166;28;20506;-88
2022/07/19 07:31:56;;;;;;;3.60;3.30;;;32.70;30.00;;;;;;4992429;28;20221;-87
2022/07/19 07:34:22;;;;;;;4.80;3.30;;;32.70;30.70;;;;;;4984452;28;20207;-87
2022/07/19 07:36:48;;;;;;;8.03;3.67;;;32.60;31.00;;;;;;4975750;28;20433;-88
2022/07/19 07:39:13;;;;;;;5.90;3.43;;;32.50;30.60;;;;;;4987676;28;20478;-88
2022/07/19 07:41:39;;;;;;;4.60;3.57;;;32.30;30.40;;;;;;4977455;28;20215;-88
2022/07/19 07:44:05;;;;;;;6.87;4.10;;;32.10;31.30;;;;;;4976902;28;20246;-88
2022/07/19 07:46:31;;;;;;;7.40;4.47;;;31.70;31.20;;;;;;4977525;28;20211;-88
2022/07/19 07:48:58;;;;;;;4.90;3.53;;;31.40;31.90;;;;;;4986090;28;20415;-88
2022/07/19 07:51:24;;;;;;;4.10;3.60;;;31.30;32.80;;;;;;4985622;28;20430;-88
2022/07/19 07:53:50;;;;;;;12.97;4.73;;;31.10;33.10;;;;;;4982596;28;20463;-88
2022/07/19 07:56:16;;;;;;;9.40;4.50;;;31.00;33.60;;;;;;4978345;28;20510;-88
2022/07/19 07:58:41;;;;;;;7.67;3.17;;;30.90;32.90;;;;;;4974915;28;20749;-86
2022/07/19 08:01:07;;;;;;;5.50;3.73;;;30.80;32.90;;;;;;4974851;28;20191;-87
2022/07/19 08:03:33;;;;;;;5.43;3.40;;;30.70;33.60;;;;;;4975369;28;20203;-87
2022/07/19 08:05:59;;;;;;;4.33;3.40;;;30.60;34.20;;;;;;4975852;28;20220;-87
2022/07/19 08:08:26;;;;;;;3.63;3.30;;;30.60;33.90;;;;;;4977175;28;20218;-87
2022/07/19 08:10:58;;;;;;;4.30;3.60;;;30.60;33.80;;;;;;4976403;28;20644;-86
2022/07/19 08:13:24;;;;;;;5.57;3.43;;;30.60;33.60;;;;;;4975833;28;20437;-87
2022/07/19 08:15:50;;;;;;;6.30;3.20;;;30.70;33.50;;;;;;4976252;28;20890;-87
2022/07/19 08:18:17;;;;;;;5.10;3.23;;;30.70;33.20;;;;;;4975879;28;20652;-87
2022/07/19 08:20:43;;;;;;;6.03;3.27;;;30.70;33.50;;;;;;4976537;28;20431;-87
2022/07/19 08:23:09;;;;;;;11.83;3.53;;;30.70;33.60;;;;;;4976825;28;20439;-87
2022/07/19 08:25:36;;;;;;;6.77;3.50;;;30.70;33.90;;;;;;4975221;28;20488;-87
2022/07/19 08:28:02;;;;;;;6.03;3.17;;;30.80;33.30;;;;;;4974309;28;20404;-87
2022/07/19 08:30:28;;;;;;;4.03;3.23;;;30.80;33.20;;;;;;4975357;28;20423;-87
2022/07/19 08:32:54;;;;;;;7.27;4.00;;;30.90;33.40;;;;;;4977359;28;20481;-86
2022/07/19 08:35:20;;;;;;;11.83;3.73;;;30.90;32.80;;;;;;4982638;28;20195;-87
2022/07/19 08:37:46;;;;;;;6.90;3.57;;;30.90;33.20;;;;;;4985068;28;20405;-86
2022/07/19 08:40:12;;;;;;;4.43;3.30;;;30.90;33.20;;;;;;4984557;28;20243;-86
2022/07/19 08:42:38;;;;;;;5.83;3.70;;;31.00;32.80;;;;;;4974759;28;20199;-86
2022/07/19 08:45:06;;;;;;;4.73;3.87;;;31.00;33.20;;;;;;4975728;28;20184;-86
2022/07/19 08:47:32;;;;;;;9.90;3.47;;;31.10;33.80;;;;;;4975566;28;20494;-86
2022/07/19 08:49:59;;;;;;;6.90;3.77;;;31.10;34.00;;;;;;4975096;28;20419;-86
2022/07/19 08:52:26;;;;;;;4.40;3.63;;;31.10;33.20;;;;;;4974145;28;20437;-87
2022/07/19 08:54:54;;;;;;;5.37;4.00;;;31.30;33.20;;;;;;4974332;28;20446;-87
2022/07/19 09:00:05;;;;;;;3.10;2.90;;;31.30;32.90;;;;;;4976255;28;20397;-86
2022/07/19 09:02:30;;;;;;;6.80;3.97;;;31.40;32.20;;;;;;4975425;28;20866;-87
2022/07/19 09:05:07;;;;;;;5.97;4.07;;;31.40;31.80;;;;;;4981280;28;20919;-87
2022/07/19 09:07:35;;;;;;;4.37;3.97;;;31.50;31.80;;;;;;4994978;28;20203;-86
2022/07/19 09:10:22;;;;;;;6.70;3.40;;;31.50;31.60;;;;;;4986804;28;20419;-87
2022/07/19 09:13:03;;;;;;;5.10;3.17;;;31.70;30.30;;;;;;4985052;28;20450;-86
2022/07/19 09:15:49;;;;;;;4.17;3.50;;;31.70;30.00;;;;;;4992374;28;20426;-86
2022/07/19 09:18:22;;;;;;;3.93;3.63;;;31.80;30.30;;;;;;4993393;28;20415;-86
2022/07/19 09:20:51;;;;;;;4.20;3.30;;;31.90;30.00;;;;;;4988078;28;20478;-86
2022/07/19 09:23:18;;;;;;;4.60;3.80;;;31.90;30.00;;;;;;4976243;28;20429;-86
2022/07/19 09:25:48;;;;;;;4.03;3.40;;;31.90;30.10;;;;;;4976179;28;20423;-87
2022/07/19 09:28:15;;;;;;;6.57;3.70;;;32.10;30.20;;;;;;4973890;28;20951;-87
2022/07/19 09:30:44;;;;;;;4.23;3.83;;;32.20;30.00;;;;;;4975789;28;20426;-86
2022/07/19 09:33:24;;;;;;;4.07;3.60;;;32.30;30.00;;;;;;4974599;28;20435;-87
2022/07/19 09:35:56;;;;;;;6.13;4.00;;;32.40;30.00;;;;;;4975401;28;20433;-86
2022/07/19 09:38:25;;;;;;;5.80;3.57;;;32.50;30.00;;;;;;4975015;28;20473;-86
2022/07/19 09:41:09;;;;;;;5.37;3.90;;;32.50;30.00;;;;;;4974509;28;20477;-88
2022/07/19 09:43:55;;;;;;;7.57;3.60;;;32.50;30.00;;;;;;4976604;28;20505;-88
2022/07/19 09:46:37;;;;;;;6.73;4.07;;;32.60;30.00;;;;;;4978280;28;20831;-88
2022/07/19 09:49:13;;;;;;;7.27;4.40;;;32.70;30.00;;;;;;4975066;28;20423;-87
2022/07/19 09:51:41;;;;;;;6.53;4.00;;;32.70;30.00;;;;;;4975758;28;20446;-88
2022/07/19 09:54:09;;;;;;;4.73;3.43;;;32.80;30.00;;;;;;4975080;28;20986;-89
2022/07/19 09:56:37;;;;;;;6.40;3.70;;;32.90;30.00;;;;;;4974488;28;20517;-88
2022/07/19 09:59:04;;;;;;;5.27;3.30;;;33.10;30.00;;;;;;4974223;28;20504;-87
2022/07/19 10:01:31;;;;;;;4.73;3.33;;;33.10;30.00;;;;;;4974962;28;20477;-88
2022/07/19 10:04:02;;;;;;;3.40;3.10;;;33.10;30.00;;;;;;4975716;28;20507;-88
2022/07/19 10:06:28;;;;;;;4.73;3.67;;;33.20;30.00;;;;;;4975139;28;20978;-90
2022/07/19 10:08:55;;;;;;;6.53;3.20;;;33.20;30.00;;;;;;4975410;28;20420;-89
2022/07/19 10:11:21;;;;;;;4.03;2.93;;;33.40;30.00;;;;;;4976559;28;20431;-90
2022/07/19 10:13:50;;;;;;;3.70;3.40;;;33.40;30.00;;;;;;4976080;28;20498;-90
2022/07/19 10:16:33;;;;;;;7.03;3.40;;;33.60;30.00;;;;;;4978511;28;20923;-90
2022/07/19 10:19:16;;;;;;;3.50;3.20;;;33.60;30.00;;;;;;4978338;28;20462;-90
2022/07/19 10:21:44;;;;;;;6.30;3.70;;;33.80;30.10;;;;;;4977156;28;20475;-89
2022/07/19 10:24:10;;;;;;;5.47;2.97;;;33.80;30.10;;;;;;4975172;28;20446;-89
2022/07/19 10:26:42;;;;;;;3.20;2.90;;;33.80;30.10;;;;;;4975543;28;20967;-90
2022/07/19 10:29:10;;;;;;;5.40;3.13;;;33.90;30.10;;;;;;4977047;28;20443;-90
2022/07/19 10:31:36;;;;;;;4.07;3.10;;;33.90;30.10;;;;;;4979171;28;20455;-89
2022/07/19 10:34:03;;;;;;;4.90;3.50;;;34.00;30.10;;;;;;4979185;28;20431;-89
2022/07/19 10:36:44;;;;;;;4.57;3.53;;;34.00;30.10;;;;;;4978899;28;20423;-90
2022/07/19 10:39:20;;;;;;;5.47;3.50;;;34.20;30.10;;;;;;4990033;28;20934;-89
2022/07/19 10:42:16;;;;;;;9.43;3.60;;;34.20;30.10;;;;;;4978652;28;20793;-89
2022/07/19 10:44:57;;;;;;;7.37;3.50;;;34.20;30.10;;;;;;4978015;28;20943;-89
2022/07/19 10:47:45;;;;;;;3.50;2.90;;;34.20;30.00;;;;;;4987699;28;20463;-89
2022/07/19 10:50:18;;;;;;;5.80;3.03;;;34.20;30.00;;;;;;4981419;28;20445;-90
2022/07/19 10:52:45;;;;;;;5.20;3.70;;;34.30;30.10;;;;;;5009904;23;20585;-88
2022/07/19 10:55:17;;;;;;;3.97;3.47;;;34.30;30.00;;;;;;4974881;28;20435;-88
2022/07/19 10:58:05;;;;;;;3.33;3.07;;;34.40;30.10;;;;;;4975932;28;20780;-91
2022/07/19 11:00:42;;;;;;;3.80;3.07;;;34.50;30.10;;;;;;4950353;29;20435;-91
2022/07/19 11:03:20;;;;;;;9.13;4.00;;;34.50;30.10;;;;;;4956521;28;20811;-90
2022/07/19 11:05:50;;;;;;;9.30;3.57;;;34.60;30.10;;;;;;4956207;28;20810;-91
2022/07/19 11:08:18;;;;;;;4.80;3.40;;;34.80;30.10;;;;;;4955489;29;20440;-90
2022/07/19 11:10:45;;;;;;;3.67;3.20;;;34.80;30.10;;;;;;4956111;29;20435;-91
2022/07/19 11:13:15;;;;;;;4.80;3.70;;;35.00;30.10;;;;;;4978302;28;20450;-91
2022/07/19 11:15:41;;;;;;;3.97;3.30;;;35.00;30.10;;;;;;4976060;28;20517;-91
2022/07/19 11:18:07;;;;;;;4.53;3.10;;;35.10;30.10;;;;;;4977737;28;20442;-91
2022/07/19 11:20:35;;;;;;;4.90;3.50;;;35.20;30.10;;;;;;4977020;28;20180;-90
2022/07/19 11:23:06;;;;;;;5.87;3.57;;;35.20;30.10;;;;;;4978231;28;20481;-91
2022/07/19 11:25:32;;;;;;;4.40;3.27;;;35.20;30.10;;;;;;4963469;28;20423;-90
2022/07/19 11:27:59;;;;;;;12.67;3.37;;;35.20;30.10;;;;;;4975839;28;20416;-90
2022/07/19 11:30:27;;;;;;;4.03;3.63;;;35.30;30.10;;;;;;4976987;28;20240;-90
2022/07/19 11:33:01;;;;;;;13.47;4.90;;;35.40;30.10;;;;;;4975678;28;20442;-91
2022/07/19 11:35:28;;;;;;;5.87;3.40;;;35.40;30.10;;;;;;4974170;28;20411;-90
2022/07/19 11:37:56;;;;;;;6.63;3.53;;;35.30;30.10;;;;;;4973127;28;20415;-90
2022/07/19 11:40:23;;;;;;;5.93;3.20;;;35.30;30.10;;;;;;4973237;28;20463;-90
2022/07/19 11:42:50;;;;;;;8.80;4.20;;;35.20;30.10;;;;;;4973856;28;20443;-90
2022/07/19 11:45:26;;;;;;;5.77;3.53;;;35.40;30.10;;;;;;4973636;28;20490;-92
2022/07/19 11:47:54;;;;;;;5.80;3.50;;;35.40;30.10;;;;;;4972983;28;20462;-90
2022/07/19 11:50:23;;;;;;;6.03;3.53;;;35.40;30.10;;;;;;4973412;28;20427;-91
2022/07/19 11:52:55;;;;;;;4.20;3.07;;;35.50;30.10;;;;;;4973121;28;20459;-91
2022/07/19 11:55:26;;;;;;;5.03;3.10;;;35.50;30.10;;;;;;4973919;28;20451;-91
2022/07/19 11:57:53;;;;;;;4.00;3.57;;;35.60;30.10;;;;;;4974977;28;20930;-91
2022/07/19 12:00:19;;;;;;;4.43;3.70;;;35.60;30.10;;;;;;4973920;28;20435;-91
2022/07/19 12:03:04;;;;;;;4.77;3.67;;;35.60;30.10;;;;;;4975974;28;20755;-91
2022/07/19 12:05:36;;;;;;;6.13;3.30;;;35.70;30.10;;;;;;4988884;28;20411;-91
2022/07/19 12:08:04;;;;;;;9.10;3.90;;;35.70;30.10;;;;;;4991624;28;20482;-92
2022/07/19 12:10:49;;;;;;;6.70;3.60;;;35.70;30.10;;;;;;4986229;28;20414;-91
2022/07/19 12:13:27;;;;;;;6.10;2.93;;;35.80;30.10;;;;;;4966048;29;20451;-91
2022/07/19 12:15:55;;;;;;;4.37;3.77;;;35.80;30.10;;;;;;4954496;29;20448;-91
2022/07/19 12:18:54;;;;;;;4.43;2.90;;;35.90;30.10;;;;;;4953606;28;20417;-91
2022/07/19 12:21:32;;;;;;;3.87;3.20;;;35.90;30.20;;;;;;4955497;28;20416;-91
2022/07/19 12:24:25;;;;;;;7.40;3.13;;;36.00;30.10;;;;;;4954156;28;20432;-91
2022/07/19 12:27:06;;;;;;;3.17;2.87;;;36.10;30.20;;;;;;4952385;29;20460;-91
2022/07/19 12:29:40;;;;;;;4.50;3.03;;;36.20;30.20;;;;;;4954114;28;20444;-91
2022/07/19 12:32:12;;;;;;;5.33;3.10;;;36.20;30.20;;;;;;4953372;28;20794;-91
2022/07/19 12:34:58;;;;;;;5.83;3.10;;;36.30;30.20;;;;;;4953416;28;20896;-91
2022/07/19 12:37:28;;;;;;;6.60;3.40;;;36.30;30.10;;;;;;4953005;28;20428;-91
2022/07/19 12:40:17;;;;;;;8.23;3.07;;;36.30;30.20;;;;;;4953140;29;20424;-91
2022/07/19 12:42:43;;;;;;;4.30;3.13;;;36.30;30.20;;;;;;4954465;28;20956;-91
2022/07/19 12:45:16;;;;;;;4.60;3.50;;;36.30;30.20;;;;;;4953228;28;20412;-91
2022/07/19 12:47:42;;;;;;;7.00;3.07;;;36.30;30.20;;;;;;4953823;28;20259;-91
2022/07/19 12:50:17;;;;;;;3.37;3.07;;;36.40;30.20;;;;;;4952863;28;20419;-91
2022/07/19 12:52:43;;;;;;;6.00;3.30;;;36.40;30.20;;;;;;4953989;28;20971;-91